createdAt,value
2023-03-19T00:00:10.507Z,8.93
2023-03-19T00:03:14.214Z,9.82
2023-03-19T00:06:17.500Z,10.40
2023-03-19T00:09:21.702Z,8.80
2023-03-19T00:12:25.003Z,11.20
2023-03-19T00:15:28.312Z,10.02
2023-03-19T00:18:31.843Z,9.23
2023-03-19T00:21:35.889Z,8.55
2023-03-19T00:24:39.230Z,9.00
2023-03-19T00:27:43.203Z,8.00
2023-03-19T00:30:46.450Z,9.85
2023-03-19T00:33:49.904Z,11.10
2023-03-19T00:36:53.340Z,11.27
2023-03-19T00:39:56.933Z,9.55
2023-03-19T00:43:00.403Z,10.30
2023-03-19T00:46:05.461Z,9.65
2023-03-19T00:49:09.264Z,8.97
2023-03-19T00:52:12.606Z,8.57
2023-03-19T00:55:16.783Z,9.85
2023-03-19T00:58:20.225Z,9.23
2023-03-19T01:01:23.714Z,8.40
2023-03-19T01:04:27.163Z,7.97
2023-03-19T01:07:30.573Z,9.70
2023-03-19T01:10:35.185Z,8.40
2023-03-19T01:13:42.154Z,8.93
2023-03-19T01:16:45.799Z,10.20
2023-03-19T01:19:49.870Z,10.95
2023-03-19T01:22:53.193Z,7.93
2023-03-19T01:25:57.533Z,10.10
2023-03-19T01:29:02.923Z,9.07
2023-03-19T01:32:06.276Z,9.65
2023-03-19T01:35:29.005Z,9.93
2023-03-19T01:38:32.915Z,10.43
2023-03-19T01:41:40.865Z,9.23
2023-03-19T01:45:33.384Z,8.30
2023-03-19T01:49:02.813Z,9.18
2023-03-19T01:52:08.652Z,9.50
2023-03-19T01:55:34.010Z,11.27
2023-03-19T01:58:53.048Z,9.57
2023-03-19T02:02:35.179Z,13.98
2023-03-19T02:05:54.024Z,9.32
2023-03-19T02:08:59.293Z,12.40
2023-03-19T02:12:03.493Z,14.45
2023-03-19T02:15:07.677Z,12.07
2023-03-19T02:18:11.487Z,10.10
2023-03-19T02:21:20.116Z,12.32
2023-03-19T02:24:35.330Z,10.40
2023-03-19T02:27:48.955Z,11.40
2023-03-19T02:30:53.225Z,12.50
2023-03-19T02:34:20.097Z,11.77
2023-03-19T02:37:33.619Z,12.00
2023-03-19T02:40:45.750Z,12.82
2023-03-19T02:43:49.477Z,11.98
2023-03-19T02:46:52.897Z,11.70
2023-03-19T02:49:56.468Z,10.75
2023-03-19T02:52:59.790Z,12.60
2023-03-19T02:56:03.584Z,11.48
2023-03-19T02:59:07.413Z,12.18
2023-03-19T03:02:11.961Z,12.07
2023-03-19T03:05:15.447Z,11.77
2023-03-19T03:08:19.099Z,15.15
2023-03-19T03:11:22.957Z,13.18
2023-03-19T03:14:26.501Z,12.65
2023-03-19T03:17:29.730Z,11.50
2023-03-19T03:20:33.824Z,14.57
2023-03-19T03:23:37.746Z,11.40
2023-03-19T03:26:40.969Z,11.30
2023-03-19T03:29:44.951Z,13.38
2023-03-19T03:32:48.227Z,12.40
2023-03-19T03:35:51.846Z,12.25
2023-03-19T03:38:55.886Z,11.68
2023-03-19T03:41:59.268Z,12.82
2023-03-19T03:45:03.446Z,12.10
2023-03-19T03:48:07.218Z,12.70
2023-03-19T03:51:10.598Z,12.57
2023-03-19T03:54:14.064Z,12.50
2023-03-19T03:57:17.424Z,11.63
2023-03-19T04:00:21.180Z,12.98
2023-03-19T04:03:25.013Z,13.23
2023-03-19T04:06:29.508Z,10.48
2023-03-19T04:09:50.932Z,10.88
2023-03-19T04:12:54.283Z,11.45
2023-03-19T04:15:57.983Z,9.70
2023-03-19T04:19:01.499Z,10.82
2023-03-19T04:22:07.810Z,12.43
2023-03-19T04:25:11.846Z,10.50
2023-03-19T04:28:16.269Z,10.82
2023-03-19T04:31:19.747Z,9.52
2023-03-19T04:34:23.284Z,10.83
2023-03-19T04:37:27.203Z,12.98
2023-03-19T04:40:30.651Z,11.27
2023-03-19T04:43:34.476Z,11.40
2023-03-19T04:46:40.386Z,11.02
2023-03-19T04:49:44.431Z,11.65
2023-03-19T04:52:48.143Z,11.52
2023-03-19T04:55:52.139Z,10.37
2023-03-19T04:58:56.971Z,13.70
2023-03-19T05:02:00.641Z,11.27
2023-03-19T05:05:04.167Z,12.20
2023-03-19T05:08:08.814Z,10.63
2023-03-19T05:11:12.836Z,11.43
2023-03-19T05:14:31.901Z,12.00
2023-03-19T05:17:42.966Z,11.48
2023-03-19T05:21:00.265Z,10.25
2023-03-19T05:24:04.996Z,9.15
2023-03-19T05:27:12.565Z,9.70
2023-03-19T05:30:36.420Z,9.10
2023-03-19T05:34:00.019Z,11.23
2023-03-19T05:37:05.869Z,10.50
2023-03-19T05:40:09.983Z,10.88
2023-03-19T05:43:14.256Z,9.80
2023-03-19T05:46:17.854Z,11.15
2023-03-19T05:49:21.033Z,11.38
2023-03-19T05:52:30.312Z,11.25
2023-03-19T05:55:36.081Z,10.63
2023-03-19T05:58:42.868Z,10.00
2023-03-19T06:01:47.249Z,10.80
2023-03-19T06:04:51.282Z,10.90
2023-03-19T06:07:58.393Z,11.27
2023-03-19T06:11:25.833Z,11.20
2023-03-19T06:14:48.140Z,9.65
2023-03-19T06:18:20.351Z,10.10
2023-03-19T06:21:29.571Z,10.80
2023-03-19T06:24:36.982Z,10.32
2023-03-19T06:27:40.770Z,9.40
2023-03-19T06:31:04.690Z,8.82
2023-03-19T06:34:34.436Z,11.30
2023-03-19T06:37:37.901Z,10.77
2023-03-19T06:40:41.188Z,8.45
2023-03-19T06:43:44.707Z,10.68
2023-03-19T06:46:48.068Z,9.10
2023-03-19T06:49:51.504Z,10.07
2023-03-19T06:52:54.932Z,8.73
2023-03-19T06:55:58.274Z,9.82
2023-03-19T06:59:01.693Z,9.68
2023-03-19T07:02:05.510Z,10.97
2023-03-19T07:05:09.204Z,9.90
2023-03-19T07:08:12.590Z,10.02
2023-03-19T07:11:16.652Z,10.45
2023-03-19T07:14:20.028Z,9.20
2023-03-19T07:17:24.628Z,8.40
2023-03-19T07:20:29.438Z,8.90
2023-03-19T07:23:32.920Z,9.02
2023-03-19T07:26:36.706Z,9.15
2023-03-19T07:29:40.866Z,8.53
2023-03-19T07:32:44.339Z,8.00
2023-03-19T07:35:47.834Z,9.38
2023-03-19T07:38:51.329Z,8.00
2023-03-19T07:41:56.014Z,8.70
2023-03-19T07:45:02.322Z,7.53
2023-03-19T07:48:06.910Z,6.45
2023-03-19T07:51:10.551Z,8.15
2023-03-19T07:54:13.843Z,7.65
2023-03-19T07:57:17.248Z,6.97
2023-03-19T08:00:20.757Z,12.97
2023-03-19T08:03:24.269Z,7.80
2023-03-19T08:06:27.593Z,6.72
2023-03-19T08:09:31.152Z,6.70
2023-03-19T08:12:39.791Z,6.47
2023-03-19T08:15:43.133Z,6.13
2023-03-19T08:18:46.436Z,6.57
2023-03-19T08:21:49.720Z,7.30
2023-03-19T08:24:53.043Z,7.07
2023-03-19T08:27:56.424Z,7.88
2023-03-19T08:31:06.224Z,6.33
2023-03-19T08:34:10.539Z,7.00
2023-03-19T08:37:13.736Z,9.02
2023-03-19T08:40:17.346Z,5.38
2023-03-19T08:43:26.590Z,6.20
2023-03-19T08:46:30.342Z,5.50
2023-03-19T08:49:34.613Z,6.65
2023-03-19T08:52:38.064Z,7.13
2023-03-19T08:55:41.417Z,10.52
2023-03-19T08:58:45.625Z,8.32
2023-03-19T09:01:53.334Z,6.83
2023-03-19T09:04:56.728Z,7.15
2023-03-19T09:08:00.756Z,6.65
2023-03-19T09:11:04.405Z,7.80
2023-03-19T09:14:07.813Z,7.03
2023-03-19T09:17:13.601Z,5.90
2023-03-19T09:20:17.477Z,5.47
2023-03-19T09:23:21.381Z,6.75
2023-03-19T09:26:24.856Z,6.10
2023-03-19T09:29:27.928Z,7.50
2023-03-19T09:32:32.095Z,4.47
2023-03-19T09:35:35.816Z,5.83
2023-03-19T09:38:39.466Z,7.70
2023-03-19T09:41:42.760Z,5.28
2023-03-19T09:44:46.700Z,7.15
2023-03-19T09:47:54.990Z,9.23
2023-03-19T09:51:00.448Z,5.83
2023-03-19T09:54:24.700Z,6.28
2023-03-19T09:57:30.736Z,5.50
2023-03-19T10:00:38.110Z,5.43
2023-03-19T10:04:08.483Z,7.00
2023-03-19T10:07:22.665Z,4.20
2023-03-19T10:10:49.743Z,6.00
2023-03-19T10:14:14.766Z,5.13
2023-03-19T10:17:25.703Z,5.43
2023-03-19T10:20:55.040Z,5.93
2023-03-19T10:24:34.665Z,7.77
2023-03-19T10:27:38.542Z,6.03
2023-03-19T10:30:46.871Z,5.82
2023-03-19T10:34:24.151Z,5.60
2023-03-19T10:37:31.754Z,6.33
2023-03-19T10:40:49.033Z,6.13
2023-03-19T10:43:56.751Z,7.28
2023-03-19T10:47:10.064Z,6.60
2023-03-19T10:50:25.594Z,6.70
2023-03-19T10:53:40.134Z,7.10
2023-03-19T10:56:48.756Z,5.93
2023-03-19T10:59:52.110Z,5.35
2023-03-19T11:02:56.762Z,5.85
2023-03-19T11:06:08.044Z,5.72
2023-03-19T11:09:19.794Z,6.70
2023-03-19T11:12:34.061Z,5.63
2023-03-19T11:15:39.098Z,6.53
2023-03-19T11:18:42.359Z,6.00
2023-03-19T11:22:00.198Z,5.45
2023-03-19T11:25:34.141Z,5.17
2023-03-19T11:28:38.223Z,7.67
2023-03-19T11:32:22.861Z,14.30
2023-03-19T11:35:59.754Z,7.45
2023-03-19T11:39:27.465Z,6.90
2023-03-19T11:43:01.632Z,7.17
2023-03-19T11:46:23.600Z,8.17
2023-03-19T11:49:39.198Z,6.90
2023-03-19T11:53:18.330Z,4.80
2023-03-19T12:00:37.714Z,6.13
2023-03-19T12:03:50.156Z,6.33
2023-03-19T12:07:26.490Z,4.85
2023-03-19T12:10:55.355Z,6.25
2023-03-19T12:14:08.307Z,5.00
2023-03-19T12:17:14.336Z,4.17
2023-03-19T12:20:41.200Z,5.40
2023-03-19T12:23:44.411Z,4.40
2023-03-19T12:27:18.232Z,4.75
2023-03-19T12:30:31.954Z,6.07
2023-03-19T12:33:54.149Z,5.43
2023-03-19T12:37:19.206Z,5.97
2023-03-19T12:40:37.442Z,5.38
2023-03-19T12:43:42.302Z,6.13
2023-03-19T12:46:59.404Z,4.38
2023-03-19T12:50:13.843Z,6.80
2023-03-19T12:53:30.238Z,5.43
2023-03-19T12:57:10.747Z,4.60
2023-03-19T13:00:26.635Z,6.10
2023-03-19T13:03:55.947Z,5.63
2023-03-19T13:07:16.714Z,5.43
2023-03-19T13:10:22.421Z,6.23
2023-03-19T13:13:36.517Z,7.70
2023-03-19T13:20:15.124Z,6.53
2023-03-19T13:23:27.763Z,8.87
2023-03-19T13:26:33.172Z,5.47
2023-03-19T13:29:41.122Z,7.43
2023-03-19T13:33:06.243Z,4.90
2023-03-19T13:36:15.229Z,4.68
2023-03-19T13:39:21.354Z,5.00
2023-03-19T13:42:42.140Z,7.70
2023-03-19T13:45:45.984Z,5.80
2023-03-19T13:52:46.004Z,5.07
2023-03-19T13:55:53.989Z,4.53
2023-03-19T13:59:15.838Z,6.60
2023-03-19T14:02:21.866Z,5.50
2023-03-19T14:05:25.970Z,5.93
2023-03-19T14:08:47.831Z,7.28
2023-03-19T14:11:51.113Z,7.20
2023-03-19T14:15:07.404Z,5.07
2023-03-19T14:18:18.800Z,6.85
2023-03-19T14:22:03.678Z,6.15
2023-03-19T14:25:52.192Z,7.22
2023-03-19T14:29:13.605Z,7.87
2023-03-19T14:32:19.512Z,5.60
2023-03-19T14:35:24.824Z,7.20
2023-03-19T14:38:57.026Z,5.90
2023-03-19T14:42:19.779Z,6.15
2023-03-19T14:45:41.737Z,5.10
2023-03-19T14:49:06.604Z,6.53
2023-03-19T14:52:15.942Z,5.47
2023-03-19T14:55:19.353Z,5.63
2023-03-19T14:58:23.407Z,7.18
2023-03-19T15:01:31.784Z,5.10
2023-03-19T15:04:36.344Z,7.00
2023-03-19T15:08:05.039Z,5.55
2023-03-19T15:11:16.907Z,4.90
2023-03-19T15:14:37.140Z,6.10
2023-03-19T15:17:40.652Z,8.73
2023-03-19T15:20:48.762Z,6.53
2023-03-19T15:23:52.593Z,7.68
2023-03-19T15:26:55.982Z,5.43
2023-03-19T15:30:09.660Z,5.65
2023-03-19T15:33:44.630Z,6.53
2023-03-19T15:37:02.645Z,8.43
2023-03-19T15:40:31.385Z,9.68
2023-03-19T15:43:38.807Z,9.73
2023-03-19T15:46:42.907Z,8.30
2023-03-19T15:49:59.142Z,7.53
2023-03-19T15:53:07.796Z,7.07
2023-03-19T15:56:14.806Z,7.65
2023-03-19T15:59:43.513Z,6.80
2023-03-19T16:02:50.862Z,5.90
2023-03-19T16:06:04.784Z,7.83
2023-03-19T16:09:25.293Z,9.30
2023-03-19T16:12:41.980Z,7.47
2023-03-19T16:15:47.783Z,9.25
2023-03-19T16:18:53.786Z,6.85
2023-03-19T16:21:58.114Z,6.93
2023-03-19T16:25:06.927Z,6.40
2023-03-19T16:29:06.795Z,7.40
2023-03-19T16:32:26.802Z,8.13
2023-03-19T16:35:32.287Z,6.65
2023-03-19T16:38:55.854Z,10.27
2023-03-19T16:42:28.181Z,7.60
2023-03-19T16:45:34.106Z,9.13
2023-03-19T16:48:43.323Z,8.70
2023-03-19T16:51:47.480Z,8.38
2023-03-19T16:54:52.156Z,8.27
2023-03-19T16:58:29.831Z,9.00
2023-03-19T17:01:33.396Z,8.48
2023-03-19T17:04:58.877Z,8.30
2023-03-19T17:08:02.485Z,7.80
2023-03-19T17:11:50.642Z,8.10
2023-03-19T17:14:54.141Z,7.93
2023-03-19T17:17:57.837Z,9.30
2023-03-19T17:21:25.173Z,8.43
2023-03-19T17:25:14.597Z,9.07
2023-03-19T17:28:18.262Z,7.47
2023-03-19T17:31:33.491Z,10.10
2023-03-19T17:34:59.602Z,10.57
2023-03-19T17:38:03.843Z,15.00
2023-03-19T17:41:16.958Z,15.02
2023-03-19T17:47:49.462Z,18.53
2023-03-19T17:51:15.814Z,15.82
2023-03-19T17:54:20.597Z,16.90
2023-03-19T17:57:46.094Z,15.52
2023-03-19T18:00:51.410Z,15.27
2023-03-19T18:04:21.188Z,15.27
2023-03-19T18:07:24.939Z,14.40
2023-03-19T18:14:16.821Z,15.18
2023-03-19T18:17:21.118Z,14.97
2023-03-19T18:20:29.219Z,14.97
2023-03-19T18:23:33.041Z,13.98
2023-03-19T18:30:01.828Z,16.40
2023-03-19T18:40:04.901Z,17.35
2023-03-19T18:43:10.953Z,15.30
2023-03-19T18:46:38.663Z,18.65
2023-03-19T18:49:43.136Z,14.33
2023-03-19T18:56:43.605Z,17.58
2023-03-19T18:59:47.524Z,16.45
2023-03-19T19:02:52.116Z,17.05
2023-03-19T19:10:05.355Z,15.53
2023-03-19T19:13:17.046Z,16.60
2023-03-19T19:16:47.965Z,17.52
2023-03-19T19:23:47.872Z,15.97
2023-03-19T19:26:54.390Z,19.70
2023-03-19T19:29:58.104Z,19.33
2023-03-19T19:33:04.627Z,18.98
2023-03-19T19:36:09.256Z,20.73
2023-03-19T19:39:34.452Z,21.90
2023-03-19T19:42:38.319Z,23.77
2023-03-19T19:56:24.171Z,24.10
2023-03-19T19:59:28.904Z,29.00
2023-03-19T20:02:32.860Z,30.10
2023-03-19T20:05:37.283Z,35.65
2023-03-19T20:08:42.886Z,27.75
2023-03-19T20:11:48.859Z,27.37
2023-03-19T20:14:53.179Z,26.83
2023-03-19T20:24:51.519Z,25.05
2023-03-19T20:28:00.019Z,25.03
2023-03-19T20:31:04.806Z,22.80
2023-03-19T20:34:28.703Z,21.45
2023-03-19T20:37:40.347Z,21.63
2023-03-19T20:40:46.597Z,22.42
2023-03-19T20:44:23.950Z,21.40
2023-03-19T20:47:27.837Z,23.20
2023-03-19T20:50:34.805Z,24.05
2023-03-19T20:53:38.149Z,23.75
2023-03-19T20:56:42.791Z,26.40
2023-03-19T20:59:47.307Z,24.47
2023-03-19T21:06:52.913Z,25.23
2023-03-19T21:09:59.930Z,23.85
2023-03-19T21:13:03.746Z,24.05
2023-03-19T21:16:32.294Z,24.37
2023-03-19T21:19:37.256Z,24.60
2023-03-19T21:23:37.303Z,23.27
2023-03-19T21:26:42.186Z,24.05
2023-03-19T21:29:48.881Z,22.85
2023-03-19T21:32:53.985Z,20.30
2023-03-19T21:35:58.133Z,23.13
2023-03-19T21:39:23.540Z,19.95
2023-03-19T21:43:00.573Z,18.90
2023-03-19T21:46:22.817Z,19.65
2023-03-19T21:49:27.195Z,21.40
2023-03-19T21:52:30.540Z,23.47
2023-03-19T21:56:02.915Z,20.85
2023-03-19T21:59:19.511Z,22.55
2023-03-19T22:02:41.883Z,24.42
2023-03-19T22:05:45.777Z,20.53
2023-03-19T22:08:54.160Z,22.98
2023-03-19T22:11:57.634Z,23.13
2023-03-19T22:15:37.611Z,20.23
2023-03-19T22:18:41.488Z,16.05
2023-03-19T22:25:13.629Z,17.80
2023-03-19T22:28:30.231Z,17.83
2023-03-19T22:31:34.092Z,19.50
2023-03-19T22:38:03.979Z,17.87
2023-03-19T22:41:18.496Z,19.13
2023-03-19T22:44:30.447Z,18.63
2023-03-19T22:47:38.310Z,17.50
2023-03-19T22:50:41.640Z,15.90
2023-03-19T22:53:46.223Z,16.50
2023-03-19T22:56:49.587Z,16.92
2023-03-19T22:59:53.115Z,16.45
2023-03-19T23:02:57.853Z,15.13
2023-03-19T23:06:14.489Z,15.63
2023-03-19T23:09:23.106Z,16.37
2023-03-19T23:22:53.168Z,15.43
2023-03-19T23:29:47.385Z,17.95
2023-03-19T23:32:50.871Z,17.63
2023-03-19T23:35:54.550Z,17.58
2023-03-19T23:38:59.278Z,19.25
2023-03-19T23:42:03.375Z,21.00
2023-03-19T23:45:40.045Z,20.38
2023-03-19T23:48:43.392Z,19.70
2023-03-19T23:55:37.189Z,19.58
2023-03-19T23:58:46.953Z,20.83
